Time;durP1;ratioP1;P1;durP2;ratioP2;P2;SDS_P1;SDS_P2;PMS_P1;PMS_P2;Temp;Humidity;BMP_temperature;BMP_pressure;BME280_temperature;BME280_humidity;BME280_pressure;Samples;Min_cycle;Max_cycle;Signal;HPM_P1;HPM_P2
2021/06/26 00:00:50;;;;;;;9.40;7.97;;;;;22.30;101723.00;;;;5112879;28;20209;-77
2021/06/26 00:03:19;;;;;;;9.57;8.45;;;;;22.20;101729.00;;;;5111985;28;20198;-77
2021/06/26 00:05:47;;;;;;;9.82;8.20;;;;;22.20;101725.00;;;;5112344;28;20751;-77
2021/06/26 00:08:14;;;;;;;10.30;8.52;;;;;22.20;101723.00;;;;5112799;28;20206;-78
2021/06/26 00:10:43;;;;;;;10.45;7.78;;;;;22.20;101723.00;;;;5112670;28;20205;-77
2021/06/26 00:13:11;;;;;;;10.82;8.90;;;;;22.20;101721.00;;;;5112221;28;20202;-77
2021/06/26 00:15:38;;;;;;;14.15;9.52;;;;;22.20;101727.00;;;;5112399;28;20213;-77
2021/06/26 00:18:06;;;;;;;11.45;9.02;;;;;22.20;101721.00;;;;5112496;28;20212;-77
2021/06/26 00:20:35;;;;;;;10.60;8.32;;;;;22.20;101724.00;;;;5112527;28;20201;-78
2021/06/26 00:23:02;;;;;;;11.77;8.68;;;;;22.20;101729.00;;;;5092581;28;20202;-78
2021/06/26 00:25:30;;;;;;;11.52;9.02;;;;;22.20;101721.00;;;;5092047;28;20209;-78
2021/06/26 00:27:57;;;;;;;11.35;9.05;;;;;22.20;101728.00;;;;5091933;28;20194;-78
2021/06/26 00:30:25;;;;;;;13.10;9.20;;;;;22.20;101719.00;;;;5092069;28;20209;-78
2021/06/26 00:32:52;;;;;;;10.25;8.75;;;;;22.20;101719.00;;;;5091751;28;20213;-78
2021/06/26 00:35:19;;;;;;;13.38;8.55;;;;;22.20;101727.00;;;;5091769;28;20193;-78
2021/06/26 00:37:48;;;;;;;11.90;9.40;;;;;22.10;101722.00;;;;5053097;28;20231;-78
2021/06/26 00:40:16;;;;;;;11.75;9.27;;;;;22.20;101717.00;;;;5056784;28;20665;-78
2021/06/26 00:42:45;;;;;;;12.52;8.82;;;;;22.10;101718.00;;;;5051569;28;20214;-78
2021/06/26 00:45:15;;;;;;;12.45;9.30;;;;;22.20;101718.00;;;;5051622;28;20192;-78
2021/06/26 00:47:43;;;;;;;12.50;9.95;;;;;22.20;101717.00;;;;5063208;28;20206;-78
2021/06/26 00:50:16;;;;;;;12.32;8.90;;;;;22.10;101716.00;;;;5062183;28;20202;-78
2021/06/26 00:52:43;;;;;;;11.20;9.23;;;;;22.20;101719.00;;;;5071735;28;20747;-78
2021/06/26 00:55:13;;;;;;;11.35;8.93;;;;;22.10;101724.00;;;;5070727;28;20219;-78
2021/06/26 00:57:44;;;;;;;11.38;8.82;;;;;22.10;101729.00;;;;5071225;28;20903;-78
2021/06/26 01:00:13;;;;;;;11.20;9.25;;;;;22.10;101726.00;;;;5071568;28;20210;-78
2021/06/26 01:02:40;;;;;;;11.30;8.23;;;;;22.10;101723.00;;;;5070966;28;20299;-78
2021/06/26 01:05:08;;;;;;;10.73;8.98;;;;;22.10;101726.00;;;;5071453;28;20199;-78
2021/06/26 01:07:36;;;;;;;10.75;9.00;;;;;22.10;101729.00;;;;5070980;28;20653;-78
2021/06/26 01:10:05;;;;;;;11.02;8.02;;;;;22.10;101728.00;;;;5069700;28;20281;-78
2021/06/26 01:12:34;;;;;;;12.38;9.63;;;;;22.10;101732.00;;;;5070628;28;20684;-78
2021/06/26 01:15:02;;;;;;;13.35;8.77;;;;;22.10;101729.00;;;;5071289;28;20202;-77
2021/06/26 01:17:29;;;;;;;9.05;7.60;;;;;22.10;101729.00;;;;5070882;28;20230;-78
2021/06/26 01:19:57;;;;;;;11.48;8.65;;;;;22.10;101723.00;;;;5071819;28;20290;-78
2021/06/26 01:22:28;;;;;;;9.52;8.48;;;;;22.10;101723.00;;;;5070764;28;20547;-78
2021/06/26 01:24:55;;;;;;;10.10;8.65;;;;;22.10;101726.00;;;;5070135;28;20218;-78
2021/06/26 01:27:23;;;;;;;10.52;7.97;;;;;22.10;101714.00;;;;5070692;28;20226;-78
2021/06/26 01:29:51;;;;;;;10.85;8.13;;;;;22.00;101730.00;;;;5070925;28;20210;-78
2021/06/26 01:32:19;;;;;;;9.50;7.85;;;;;22.00;101730.00;;;;5070657;28;20656;-78
2021/06/26 01:34:47;;;;;;;9.98;8.25;;;;;22.00;101736.00;;;;5069984;28;20195;-78
2021/06/26 01:37:15;;;;;;;9.90;7.72;;;;;22.00;101735.00;;;;5086280;28;20246;-78
2021/06/26 01:39:44;;;;;;;10.45;8.52;;;;;22.00;101742.00;;;;5108847;28;20197;-78
2021/06/26 01:42:11;;;;;;;10.80;9.15;;;;;22.00;101734.00;;;;5111205;28;20209;-78
2021/06/26 01:44:39;;;;;;;12.18;8.77;;;;;22.00;101733.00;;;;5110253;28;20208;-78
2021/06/26 01:47:08;;;;;;;10.77;8.70;;;;;22.00;101733.00;;;;5099595;28;20205;-78
2021/06/26 01:49:36;;;;;;;11.95;9.52;;;;;22.00;101737.00;;;;5090174;28;20199;-78
2021/06/26 01:52:04;;;;;;;11.93;9.63;;;;;22.00;101742.00;;;;5090352;28;20660;-78
2021/06/26 01:54:31;;;;;;;15.45;9.68;;;;;22.00;101742.00;;;;5090564;28;20229;-78
2021/06/26 01:56:59;;;;;;;11.60;9.20;;;;;22.00;101747.00;;;;5090177;28;20598;-78
2021/06/26 01:59:27;;;;;;;11.93;9.18;;;;;22.00;101743.00;;;;5090260;28;20198;-78
2021/06/26 02:01:54;;;;;;;13.55;10.00;;;;;22.00;101751.00;;;;5090893;28;20206;-78
2021/06/26 02:04:21;;;;;;;12.00;10.50;;;;;22.00;101746.00;;;;5105231;28;20209;-78
2021/06/26 02:06:48;;;;;;;10.25;9.18;;;;;22.00;101749.00;;;;5110508;28;20197;-78
2021/06/26 02:09:15;;;;;;;20.52;9.75;;;;;22.00;101750.00;;;;5110737;28;20193;-78
2021/06/26 02:11:43;;;;;;;14.15;10.23;;;;;22.00;101754.00;;;;5110113;28;20677;-78
2021/06/26 02:14:11;;;;;;;12.77;9.48;;;;;22.00;101758.00;;;;5110344;28;20197;-78
2021/06/26 02:16:39;;;;;;;12.90;9.77;;;;;22.00;101753.00;;;;5109876;28;20221;-78
2021/06/26 02:19:06;;;;;;;11.45;9.68;;;;;22.10;101760.00;;;;5110194;28;20197;-78
2021/06/26 02:21:34;;;;;;;12.18;9.65;;;;;22.10;101759.00;;;;5109144;28;20201;-78
2021/06/26 02:24:01;;;;;;;13.07;9.50;;;;;22.10;101759.00;;;;5110310;28;20201;-78
2021/06/26 02:26:28;;;;;;;12.43;10.25;;;;;22.10;101762.00;;;;5110556;28;20202;-78
2021/06/26 02:28:56;;;;;;;12.20;9.82;;;;;22.10;101762.00;;;;5109745;28;20205;-78
2021/06/26 02:31:24;;;;;;;15.00;10.85;;;;;22.10;101758.00;;;;5109928;28;20206;-78
2021/06/26 02:33:52;;;;;;;14.00;10.52;;;;;22.10;101756.00;;;;5110542;28;20263;-78
2021/06/26 02:36:19;;;;;;;11.88;9.80;;;;;22.10;101751.00;;;;5109761;28;20229;-78
2021/06/26 02:38:46;;;;;;;12.15;9.77;;;;;22.10;101752.00;;;;5109135;28;20232;-78
2021/06/26 02:41:13;;;;;;;14.25;10.30;;;;;22.10;101753.00;;;;5109710;28;20663;-78
2021/06/26 02:43:41;;;;;;;11.85;8.85;;;;;22.10;101749.00;;;;5109982;28;20209;-78
2021/06/26 02:46:08;;;;;;;14.15;10.65;;;;;22.10;101753.00;;;;5107543;28;20213;-78
2021/06/26 02:48:36;;;;;;;16.02;10.80;;;;;22.10;101755.00;;;;5089459;28;20202;-78
2021/06/26 02:51:04;;;;;;;13.18;9.88;;;;;22.10;101756.00;;;;5088863;28;20206;-78
2021/06/26 02:53:31;;;;;;;14.48;9.57;;;;;22.10;101748.00;;;;5089417;28;20202;-78
2021/06/26 02:55:58;;;;;;;11.65;8.85;;;;;22.10;101758.00;;;;5109228;28;20213;-78
2021/06/26 02:58:26;;;;;;;12.02;10.20;;;;;22.10;101763.00;;;;5109315;28;20221;-78
2021/06/26 03:00:53;;;;;;;12.85;9.85;;;;;22.10;101759.00;;;;5109942;28;20205;-78
2021/06/26 03:03:20;;;;;;;13.60;10.30;;;;;22.10;101755.00;;;;5109511;28;20679;-78
2021/06/26 03:05:48;;;;;;;14.38;11.60;;;;;22.10;101757.00;;;;5108888;28;20206;-78
2021/06/26 03:08:16;;;;;;;11.93;10.38;;;;;22.10;101763.00;;;;5109431;28;20224;-78
2021/06/26 03:10:43;;;;;;;14.38;11.02;;;;;22.10;101758.00;;;;5109097;28;20475;-78
2021/06/26 03:13:10;;;;;;;14.32;11.63;;;;;22.10;101757.00;;;;5109736;28;20205;-78
2021/06/26 03:15:37;;;;;;;13.85;10.20;;;;;22.10;101758.00;;;;5108747;28;20190;-78
2021/06/26 03:18:05;;;;;;;15.05;11.10;;;;;22.20;101750.00;;;;5109239;28;20221;-78
2021/06/26 03:20:32;;;;;;;13.63;10.98;;;;;22.20;101748.00;;;;5109503;28;20197;-78
2021/06/26 03:23:01;;;;;;;13.77;10.50;;;;;22.10;101748.00;;;;5108335;28;20210;-78
2021/06/26 03:25:28;;;;;;;14.60;11.35;;;;;22.20;101756.00;;;;5109232;28;20678;-78
2021/06/26 03:27:55;;;;;;;15.65;10.98;;;;;22.20;101759.00;;;;5109164;28;20698;-78
2021/06/26 03:30:22;;;;;;;13.13;11.10;;;;;22.20;101757.00;;;;5109010;28;20197;-78
2021/06/26 03:32:50;;;;;;;12.90;10.55;;;;;22.20;101761.00;;;;5108981;28;20208;-78
2021/06/26 03:35:17;;;;;;;17.00;11.50;;;;;22.20;101766.00;;;;5109007;28;20198;-78
2021/06/26 03:37:45;;;;;;;13.95;11.43;;;;;22.20;101766.00;;;;5108272;28;20241;-78
2021/06/26 03:40:14;;;;;;;14.77;11.93;;;;;22.10;101758.00;;;;5109229;28;20550;-78
2021/06/26 03:42:41;;;;;;;12.65;10.40;;;;;22.20;101768.00;;;;5108688;28;20201;-78
2021/06/26 03:45:10;;;;;;;11.80;9.00;;;;;22.20;101764.00;;;;5108644;28;20210;-78
2021/06/26 03:47:37;;;;;;;14.20;11.70;;;;;22.20;101765.00;;;;5098352;28;20202;-78
2021/06/26 03:50:05;;;;;;;11.20;9.70;;;;;22.20;101769.00;;;;5105191;28;20197;-78
2021/06/26 03:52:33;;;;;;;15.60;11.40;;;;;22.20;101764.00;;;;5109205;28;20201;-78
2021/06/26 03:55:00;;;;;;;12.40;10.63;;;;;22.20;101766.00;;;;5109191;28;20229;-78
2021/06/26 03:57:28;;;;;;;14.40;11.15;;;;;22.20;101768.00;;;;5107498;28;20221;-78
2021/06/26 03:59:56;;;;;;;16.05;12.00;;;;;22.20;101765.00;;;;5109834;28;20208;-78
2021/06/26 04:02:23;;;;;;;13.93;11.45;;;;;22.20;101764.00;;;;5108710;28;20213;-78
2021/06/26 04:04:50;;;;;;;14.05;10.98;;;;;22.20;101774.00;;;;5108580;28;20190;-78
2021/06/26 04:07:17;;;;;;;13.60;11.43;;;;;22.20;101767.00;;;;5108788;28;20193;-78
2021/06/26 04:09:45;;;;;;;14.27;10.65;;;;;22.20;101758.00;;;;5108644;28;20216;-78
2021/06/26 04:12:12;;;;;;;14.27;10.85;;;;;22.20;101761.00;;;;5108438;28;20201;-78
2021/06/26 04:14:40;;;;;;;12.50;10.07;;;;;22.20;101759.00;;;;5109340;28;20194;-78
2021/06/26 04:17:08;;;;;;;13.77;10.95;;;;;22.20;101764.00;;;;5108498;28;20208;-78
2021/06/26 04:19:35;;;;;;;12.98;10.27;;;;;22.20;101765.00;;;;5107893;28;20582;-78
2021/06/26 04:22:03;;;;;;;14.20;11.00;;;;;22.20;101767.00;;;;5108741;28;20209;-78
2021/06/26 04:24:31;;;;;;;14.70;11.18;;;;;22.20;101763.00;;;;5108737;28;20213;-78
2021/06/26 04:26:58;;;;;;;13.45;10.40;;;;;22.20;101765.00;;;;5108320;28;20467;-78
2021/06/26 04:29:26;;;;;;;14.73;11.23;;;;;22.20;101767.00;;;;5108503;28;20197;-78
2021/06/26 04:31:54;;;;;;;12.07;10.30;;;;;22.20;101772.00;;;;5108346;28;20198;-78
2021/06/26 04:34:21;;;;;;;14.68;10.77;;;;;22.30;101764.00;;;;5108707;28;20571;-78
2021/06/26 04:36:49;;;;;;;12.43;9.68;;;;;22.30;101763.00;;;;5107966;28;20303;-78
2021/06/26 04:39:16;;;;;;;14.98;10.18;;;;;22.30;101764.00;;;;5108496;28;20282;-78
2021/06/26 04:41:44;;;;;;;14.90;10.43;;;;;22.30;101761.00;;;;5108595;28;20216;-78
2021/06/26 04:44:11;;;;;;;13.88;10.77;;;;;22.30;101758.00;;;;5109195;28;20241;-78
2021/06/26 04:46:39;;;;;;;14.20;11.52;;;;;22.30;101754.00;;;;5111730;28;20194;-78
2021/06/26 04:49:07;;;;;;;12.65;10.68;;;;;22.30;101757.00;;;;5112196;28;20198;-78
2021/06/26 04:51:36;;;;;;;12.95;9.98;;;;;22.40;101753.00;;;;5112159;28;20197;-78
2021/06/26 04:54:04;;;;;;;11.80;10.50;;;;;22.40;101743.00;;;;5111329;28;20213;-78
2021/06/26 04:56:31;;;;;;;11.02;9.73;;;;;22.40;101750.00;;;;5112063;28;20220;-78
2021/06/26 04:58:58;;;;;;;15.23;11.93;;;;;22.40;101748.00;;;;5112087;28;20244;-78
2021/06/26 05:01:26;;;;;;;13.63;11.23;;;;;22.40;101753.00;;;;5111443;28;20206;-78
2021/06/26 05:03:53;;;;;;;13.45;10.88;;;;;22.50;101759.00;;;;5112392;28;20208;-78
2021/06/26 05:06:22;;;;;;;13.57;11.23;;;;;22.50;101753.00;;;;5111707;28;20193;-78
2021/06/26 05:08:49;;;;;;;14.90;11.13;;;;;22.50;101752.00;;;;5111283;28;20656;-78
2021/06/26 05:11:16;;;;;;;12.50;9.98;;;;;22.50;101758.00;;;;5111380;28;20198;-78
2021/06/26 05:13:44;;;;;;;13.00;10.30;;;;;22.50;101755.00;;;;5111785;28;20217;-78
2021/06/26 05:16:11;;;;;;;13.23;9.95;;;;;22.60;101757.00;;;;5110943;28;20190;-78
2021/06/26 05:18:38;;;;;;;14.05;11.38;;;;;22.60;101761.00;;;;5111592;28;20221;-78
2021/06/26 05:21:06;;;;;;;15.57;10.05;;;;;22.60;101755.00;;;;5111236;28;20574;-78
2021/06/26 05:23:35;;;;;;;13.80;10.75;;;;;22.60;101755.00;;;;5111285;28;20193;-78
2021/06/26 05:26:03;;;;;;;13.15;9.98;;;;;22.60;101759.00;;;;5111336;28;20678;-78
2021/06/26 05:28:31;;;;;;;13.77;10.18;;;;;22.70;101751.00;;;;5110791;28;20266;-78
2021/06/26 05:30:58;;;;;;;14.05;9.32;;;;;22.70;101751.00;;;;5111303;28;20623;-78
2021/06/26 05:33:25;;;;;;;13.95;10.07;;;;;22.70;101747.00;;;;5110850;28;20197;-78
2021/06/26 05:35:52;;;;;;;14.05;9.80;;;;;22.70;101746.00;;;;5111337;28;20254;-78
2021/06/26 05:38:20;;;;;;;12.65;9.48;;;;;22.80;101749.00;;;;5111207;28;20225;-78
2021/06/26 05:40:48;;;;;;;11.23;8.93;;;;;22.80;101750.00;;;;5110997;28;20213;-78
2021/06/26 05:43:16;;;;;;;12.07;9.43;;;;;22.80;101756.00;;;;5110732;28;20585;-78
2021/06/26 05:45:43;;;;;;;14.90;10.32;;;;;22.90;101752.00;;;;5110451;28;20209;-78
2021/06/26 05:48:10;;;;;;;12.07;9.40;;;;;22.90;101758.00;;;;5093689;28;20203;-78
2021/06/26 05:50:38;;;;;;;15.18;8.77;;;;;22.90;101762.00;;;;5090768;28;20202;-78
2021/06/26 05:53:05;;;;;;;13.15;10.13;;;;;23.00;101763.00;;;;5090269;28;20198;-78
2021/06/26 05:55:32;;;;;;;13.23;9.88;;;;;23.00;101757.00;;;;5089761;28;20226;-78
2021/06/26 05:58:01;;;;;;;12.25;9.90;;;;;23.00;101768.00;;;;5090500;28;20680;-78
2021/06/26 06:00:32;;;;;;;13.75;9.60;;;;;23.10;101764.00;;;;5090879;28;20198;-78
2021/06/26 06:03:00;;;;;;;13.00;10.35;;;;;23.10;101763.00;;;;5111063;28;20237;-78
2021/06/26 06:05:27;;;;;;;12.77;9.90;;;;;23.10;101768.00;;;;5109849;28;20193;-78
2021/06/26 06:07:54;;;;;;;13.30;10.48;;;;;23.10;101770.00;;;;5110914;28;20213;-78
2021/06/26 06:10:21;;;;;;;12.05;9.73;;;;;23.20;101765.00;;;;5110196;28;20209;-78
2021/06/26 06:12:49;;;;;;;12.15;9.65;;;;;23.20;101766.00;;;;5110426;28;20202;-78
2021/06/26 06:15:17;;;;;;;13.60;10.32;;;;;23.20;101763.00;;;;5110102;28;20216;-80
2021/06/26 06:17:44;;;;;;;12.55;9.70;;;;;23.30;101760.00;;;;5109436;28;20295;-78
2021/06/26 06:20:13;;;;;;;14.65;10.82;;;;;23.30;101761.00;;;;5110135;28;20212;-78
2021/06/26 06:22:40;;;;;;;12.15;9.57;;;;;23.40;101760.00;;;;5109246;28;20202;-78
2021/06/26 06:25:12;;;;;;;13.73;10.70;;;;;23.40;101771.00;;;;5109008;28;20197;-78
2021/06/26 06:27:41;;;;;;;13.63;9.50;;;;;23.50;101768.00;;;;5109762;28;20256;-78
2021/06/26 06:30:10;;;;;;;11.38;9.82;;;;;23.50;101764.00;;;;5110185;27;20211;-78
2021/06/26 06:32:38;;;;;;;10.48;9.32;;;;;23.50;101765.00;;;;5109362;28;21026;-78
2021/06/26 06:35:07;;;;;;;13.93;9.40;;;;;23.60;101775.00;;;;5109222;28;20198;-79
2021/06/26 06:37:35;;;;;;;12.32;10.30;;;;;23.60;101775.00;;;;5108506;28;20229;-78
2021/06/26 06:40:02;;;;;;;12.57;9.73;;;;;23.70;101773.00;;;;5109394;28;20220;-78
2021/06/26 06:42:29;;;;;;;13.57;10.10;;;;;23.70;101775.00;;;;5109297;28;20618;-78
2021/06/26 06:44:56;;;;;;;13.85;9.77;;;;;23.80;101781.00;;;;5109377;28;20189;-79
2021/06/26 06:47:24;;;;;;;11.18;9.23;;;;;23.80;101783.00;;;;5104934;28;20287;-78
2021/06/26 06:49:52;;;;;;;11.35;9.40;;;;;23.80;101784.00;;;;5095504;28;20190;-78
2021/06/26 06:52:19;;;;;;;11.70;9.73;;;;;23.90;101787.00;;;;5096161;28;20216;-79
2021/06/26 06:54:46;;;;;;;12.23;9.45;;;;;23.90;101782.00;;;;5109676;28;20193;-79
2021/06/26 06:57:14;;;;;;;12.05;9.38;;;;;24.00;101790.00;;;;5109621;28;20217;-78
2021/06/26 06:59:41;;;;;;;14.70;10.10;;;;;24.00;101787.00;;;;5109339;28;20225;-79
2021/06/26 07:02:08;;;;;;;10.43;9.30;;;;;24.00;101794.00;;;;5109511;28;20663;-79
2021/06/26 07:04:35;;;;;;;10.68;8.80;;;;;24.10;101795.00;;;;5108922;28;20225;-78
2021/06/26 07:07:04;;;;;;;12.15;9.13;;;;;24.10;101787.00;;;;5109207;28;20209;-78
2021/06/26 07:09:32;;;;;;;12.10;9.20;;;;;24.20;101794.00;;;;5108692;28;20777;-79
2021/06/26 07:11:59;;;;;;;10.50;8.60;;;;;24.20;101788.00;;;;5109524;28;20236;-79
2021/06/26 07:14:26;;;;;;;10.38;8.70;;;;;24.20;101790.00;;;;5109443;28;20209;-78
2021/06/26 07:16:54;;;;;;;12.35;9.15;;;;;24.30;101791.00;;;;5108811;28;20201;-78
2021/06/26 07:19:21;;;;;;;13.88;8.98;;;;;24.30;101792.00;;;;5109443;28;20225;-79
2021/06/26 07:21:48;;;;;;;10.15;8.15;;;;;24.40;101788.00;;;;5109675;28;20206;-79
2021/06/26 07:24:17;;;;;;;9.77;8.32;;;;;24.40;101791.00;;;;5109250;28;20209;-79
2021/06/26 07:26:44;;;;;;;9.40;7.68;;;;;24.50;101791.00;;;;5108914;28;20600;-79
2021/06/26 07:29:12;;;;;;;9.55;8.13;;;;;24.50;101786.00;;;;5109648;28;20213;-79
2021/06/26 07:31:39;;;;;;;13.77;8.68;;;;;24.60;101779.00;;;;5108656;28;20198;-79
2021/06/26 07:34:06;;;;;;;9.10;8.00;;;;;24.70;101790.00;;;;5109016;28;20204;-80
2021/06/26 07:36:33;;;;;;;9.93;7.90;;;;;24.70;101789.00;;;;5107802;28;20770;-79
2021/06/26 07:39:01;;;;;;;11.73;7.97;;;;;24.70;101782.00;;;;5108954;28;20725;-78
2021/06/26 07:41:29;;;;;;;10.55;8.32;;;;;24.80;101779.00;;;;5108964;28;20197;-79
2021/06/26 07:43:56;;;;;;;9.27;7.95;;;;;24.90;101788.00;;;;5108857;28;20205;-79
2021/06/26 07:46:24;;;;;;;9.65;6.95;;;;;24.90;101780.00;;;;5108064;28;20239;-79
2021/06/26 07:48:51;;;;;;;9.45;7.60;;;;;25.00;101777.00;;;;5088156;28;20194;-78
2021/06/26 07:51:19;;;;;;;9.68;8.10;;;;;25.10;101778.00;;;;5088748;28;20205;-79
2021/06/26 07:53:46;;;;;;;9.77;7.55;;;;;25.10;101782.00;;;;5088595;28;20198;-78
2021/06/26 07:56:13;;;;;;;10.88;7.60;;;;;25.20;101783.00;;;;5088635;28;20213;-78
2021/06/26 07:58:42;;;;;;;8.07;7.15;;;;;25.30;101780.00;;;;5088518;28;20230;-79
2021/06/26 08:01:09;;;;;;;10.27;7.10;;;;;25.30;101777.00;;;;5102571;28;20698;-78
2021/06/26 08:03:36;;;;;;;8.02;6.82;;;;;25.40;101781.00;;;;5108308;28;20208;-78
2021/06/26 08:06:04;;;;;;;8.93;6.97;;;;;25.60;101771.00;;;;5108863;28;20198;-79
2021/06/26 08:08:31;;;;;;;8.93;6.68;;;;;25.70;101763.00;;;;5108559;28;20201;-80
2021/06/26 08:10:58;;;;;;;9.18;6.97;;;;;25.90;101769.00;;;;5108821;28;20217;-81
2021/06/26 08:13:25;;;;;;;12.30;7.03;;;;;26.00;101768.00;;;;5108625;28;20209;-80
2021/06/26 08:15:54;;;;;;;8.40;6.88;;;;;26.10;101768.00;;;;5108247;28;20212;-80
2021/06/26 08:18:21;;;;;;;7.90;6.13;;;;;26.30;101769.00;;;;5108418;28;20699;-81
2021/06/26 08:20:49;;;;;;;8.35;6.35;;;;;26.50;101769.00;;;;5112527;28;20209;-80
2021/06/26 08:23:16;;;;;;;7.28;6.55;;;;;26.60;101772.00;;;;5112737;28;20205;-80
2021/06/26 08:25:43;;;;;;;7.63;6.40;;;;;26.80;101772.00;;;;5112475;28;20461;-80
2021/06/26 08:28:10;;;;;;;6.80;6.10;;;;;27.00;101771.00;;;;5111898;28;20216;-80
2021/06/26 08:30:38;;;;;;;7.80;6.70;;;;;27.10;101773.00;;;;5112214;28;20208;-81
2021/06/26 08:33:06;;;;;;;8.13;6.93;;;;;27.20;101778.00;;;;5112332;28;20205;-81
2021/06/26 08:35:33;;;;;;;8.10;6.85;;;;;27.40;101782.00;;;;5102929;28;20199;-80
2021/06/26 08:38:01;;;;;;;7.60;6.13;;;;;27.50;101778.00;;;;5091385;28;20202;-81
2021/06/26 08:40:28;;;;;;;7.82;6.18;;;;;27.70;101776.00;;;;5091448;28;20229;-80
2021/06/26 08:42:56;;;;;;;7.70;6.47;;;;;27.80;101781.00;;;;5092412;28;20206;-81
2021/06/26 08:45:24;;;;;;;9.18;6.97;;;;;27.90;101785.00;;;;5091474;28;20894;-80
2021/06/26 08:47:53;;;;;;;7.78;6.53;;;;;28.00;101784.00;;;;5103151;28;20204;-81
2021/06/26 08:50:24;;;;;;;9.18;7.30;;;;;28.10;101785.00;;;;5111939;28;20218;-80
2021/06/26 08:52:51;;;;;;;12.05;7.28;;;;;28.20;101783.00;;;;5111849;28;20202;-80
2021/06/26 08:55:19;;;;;;;9.32;7.22;;;;;28.30;101777.00;;;;5111474;28;20667;-80
2021/06/26 08:57:47;;;;;;;10.35;7.57;;;;;28.40;101779.00;;;;5111792;28;20205;-81
2021/06/26 09:00:17;;;;;;;10.13;8.07;;;;;28.50;101776.00;;;;5111240;28;20694;-80
2021/06/26 09:02:45;;;;;;;7.80;6.88;;;;;28.60;101774.00;;;;5111843;28;20209;-80
2021/06/26 09:05:23;;;;;;;9.70;7.85;;;;;28.70;101771.00;;;;5111976;28;20198;-80
2021/06/26 09:07:52;;;;;;;11.35;7.80;;;;;28.80;101772.00;;;;5111410;28;20205;-80
2021/06/26 09:10:21;;;;;;;8.88;7.45;;;;;28.90;101777.00;;;;5111955;28;20206;-81
2021/06/26 09:12:50;;;;;;;10.15;8.18;;;;;29.10;101783.00;;;;5111054;28;20580;-81
2021/06/26 09:15:26;;;;;;;12.70;8.25;;;;;29.10;101785.00;;;;5111518;28;20694;-81
2021/06/26 09:17:53;;;;;;;12.40;9.00;;;;;29.20;101789.00;;;;5111904;28;20204;-80
2021/06/26 09:20:33;;;;;;;11.75;10.45;;;;;29.30;101786.00;;;;5110991;28;20229;-82
2021/06/26 09:23:03;;;;;;;10.40;9.35;;;;;29.40;101785.00;;;;5111283;28;20197;-80
2021/06/26 09:25:32;;;;;;;10.65;8.02;;;;;29.40;101783.00;;;;5111215;28;20573;-80
2021/06/26 09:28:00;;;;;;;8.98;7.80;;;;;29.50;101787.00;;;;5111096;28;20243;-80
2021/06/26 09:30:36;;;;;;;9.70;8.05;;;;;29.50;101784.00;;;;5110680;28;20201;-79
2021/06/26 09:33:11;;;;;;;9.57;7.47;;;;;29.70;101785.00;;;;5111492;28;20229;-79
2021/06/26 09:35:39;;;;;;;9.57;8.43;;;;;29.70;101786.00;;;;5110049;28;20228;-80
2021/06/26 09:38:09;;;;;;;10.05;8.65;;;;;29.80;101788.00;;;;5111175;28;20216;-79
2021/06/26 09:40:40;;;;;;;10.25;8.48;;;;;29.90;101784.00;;;;5110740;28;20224;-80
2021/06/26 09:43:07;;;;;;;10.43;8.50;;;;;29.90;101786.00;;;;5111103;28;20292;-81
2021/06/26 09:45:35;;;;;;;8.70;7.30;;;;;29.90;101787.00;;;;5110392;28;20197;-80
2021/06/26 09:48:07;;;;;;;10.02;8.07;;;;;29.90;101785.00;;;;5101636;28;20592;-81
2021/06/26 09:50:38;;;;;;;8.25;6.35;;;;;30.10;101782.00;;;;5107673;28;20205;-81
2021/06/26 09:53:07;;;;;;;8.48;6.45;;;;;30.10;101785.00;;;;5110766;28;20196;-81
2021/06/26 09:55:36;;;;;;;7.65;6.50;;;;;30.30;101779.00;;;;5110016;28;20209;-81
2021/06/26 09:58:09;;;;;;;10.27;7.85;;;;;30.30;101791.00;;;;5110309;28;20193;-81
2021/06/26 10:00:38;;;;;;;8.20;7.25;;;;;30.40;101796.00;;;;5110158;28;20238;-81
2021/06/26 10:03:05;;;;;;;10.75;7.75;;;;;30.50;101794.00;;;;5110638;28;20645;-81
2021/06/26 10:05:33;;;;;;;7.32;6.15;;;;;30.60;101790.00;;;;5110509;28;20212;-81
2021/06/26 10:08:01;;;;;;;7.82;6.72;;;;;30.70;101793.00;;;;5110369;28;20209;-82
2021/06/26 10:10:30;;;;;;;10.30;8.52;;;;;30.70;101799.00;;;;5110278;28;20201;-80
2021/06/26 10:12:58;;;;;;;8.73;6.07;;;;;30.80;101798.00;;;;5110835;28;20227;-81
2021/06/26 10:15:27;;;;;;;9.20;7.43;;;;;30.80;101791.00;;;;5110487;28;20577;-82
2021/06/26 10:17:54;;;;;;;9.70;7.53;;;;;30.80;101791.00;;;;5109892;28;20221;-81
2021/06/26 10:20:25;;;;;;;8.18;7.28;;;;;30.80;101791.00;;;;5110122;28;20637;-80
2021/06/26 10:22:56;;;;;;;11.45;7.28;;;;;30.90;101790.00;;;;5110611;28;20198;-82
2021/06/26 10:25:28;;;;;;;9.55;7.50;;;;;30.90;101791.00;;;;5109466;28;20197;-82
2021/06/26 10:28:04;;;;;;;10.35;7.13;;;;;30.90;101791.00;;;;5110192;28;20209;-81
2021/06/26 10:30:32;;;;;;;10.70;7.35;;;;;31.00;101783.00;;;;5110164;28;20679;-81
2021/06/26 10:33:01;;;;;;;8.35;7.40;;;;;31.00;101784.00;;;;5109864;28;20208;-81
2021/06/26 10:35:31;;;;;;;9.32;7.25;;;;;31.00;101784.00;;;;5109076;28;20197;-81
2021/06/26 10:38:09;;;;;;;7.60;6.32;;;;;31.00;101786.00;;;;5109596;28;20221;-81
2021/06/26 10:40:43;;;;;;;6.70;5.32;;;;;31.00;101785.00;;;;5109737;28;20229;-80
2021/06/26 10:43:32;;;;;;;9.40;8.10;;;;;30.90;101784.00;;;;5109006;28;20604;-80
2021/06/26 10:46:12;;;;;;;7.93;6.55;;;;;30.90;101775.00;;;;5106175;28;20205;-80
2021/06/26 10:48:42;;;;;;;8.18;6.47;;;;;31.00;101771.00;;;;5108736;28;20609;-80
2021/06/26 10:51:10;;;;;;;9.32;7.32;;;;;31.00;101783.00;;;;5109488;28;20206;-80
2021/06/26 10:53:40;;;;;;;8.93;6.97;;;;;30.90;101777.00;;;;5109663;28;20198;-81
2021/06/26 10:56:10;;;;;;;9.30;7.47;;;;;31.00;101780.00;;;;5108643;28;20218;-79
2021/06/26 10:58:40;;;;;;;8.40;7.35;;;;;31.00;101784.00;;;;5109197;28;20212;-78
2021/06/26 11:01:15;;;;;;;12.82;8.63;;;;;31.00;101778.00;;;;5109042;28;20221;-77
2021/06/26 11:03:43;;;;;;;9.05;7.93;;;;;31.00;101784.00;;;;5108778;28;20200;-78
2021/06/26 11:06:25;;;;;;;9.82;8.13;;;;;31.00;101779.00;;;;5108452;28;20682;-78
2021/06/26 11:09:00;;;;;;;9.98;7.32;;;;;31.10;101778.00;;;;5108497;28;20201;-78
2021/06/26 11:11:29;;;;;;;6.00;5.40;;;;;31.20;101773.00;;;;5108238;28;20220;-78
2021/06/26 11:14:16;;;;;;;7.97;6.38;;;;;31.10;101778.00;;;;5109158;28;20205;-78
2021/06/26 11:16:48;;;;;;;9.65;6.57;;;;;31.30;101776.00;;;;5108768;28;20235;-78
2021/06/26 11:19:15;;;;;;;6.95;5.43;;;;;31.40;101774.00;;;;5107758;28;20209;-78
2021/06/26 11:21:46;;;;;;;7.40;6.03;;;;;31.40;101779.00;;;;5108422;28;20232;-79
2021/06/26 11:24:14;;;;;;;6.78;5.28;;;;;31.40;101781.00;;;;5108737;28;20203;-79
2021/06/26 11:26:52;;;;;;;6.80;6.10;;;;;31.20;101778.00;;;;5108495;28;20212;-78
2021/06/26 11:29:30;;;;;;;6.93;5.88;;;;;31.20;101781.00;;;;5108639;28;20197;-79
2021/06/26 11:31:58;;;;;;;5.82;5.28;;;;;31.20;101773.00;;;;5109568;28;20197;-79
2021/06/26 11:34:26;;;;;;;7.03;5.50;;;;;31.20;101780.00;;;;5108121;28;20206;-79
2021/06/26 11:37:02;;;;;;;6.15;5.43;;;;;31.20;101779.00;;;;5108818;28;20796;-79
2021/06/26 11:39:32;;;;;;;7.72;5.40;;;;;31.20;101778.00;;;;5109391;28;20196;-79
2021/06/26 11:41:59;;;;;;;6.50;5.63;;;;;31.30;101773.00;;;;5109139;28;20201;-80
2021/06/26 11:44:36;;;;;;;6.63;6.03;;;;;31.20;101773.00;;;;5108794;28;20205;-80
2021/06/26 11:47:04;;;;;;;6.15;5.55;;;;;31.30;101772.00;;;;5106682;28;20613;-79
2021/06/26 11:49:40;;;;;;;6.55;5.88;;;;;31.30;101772.00;;;;5088023;28;20206;-80
2021/06/26 11:52:09;;;;;;;6.28;5.68;;;;;31.30;101773.00;;;;5088694;28;20345;-79
2021/06/26 11:54:37;;;;;;;6.00;5.43;;;;;31.30;101772.00;;;;5092544;28;20209;-80
2021/06/26 11:57:05;;;;;;;6.95;5.35;;;;;31.40;101774.00;;;;5092147;28;20210;-80
2021/06/26 11:59:42;;;;;;;5.43;4.88;;;;;31.40;101772.00;;;;5109547;28;20209;-80
2021/06/26 12:02:10;;;;;;;6.18;5.30;;;;;31.50;101767.00;;;;5113226;28;20583;-80
2021/06/26 12:04:39;;;;;;;8.20;5.38;;;;;31.50;101771.00;;;;5113215;28;20275;-78